Time;durP1;ratioP1;P1;durP2;ratioP2;P2;SDS_P1;SDS_P2;PMS_P1;PMS_P2;Temp;Humidity;BMP_temperature;BMP_pressure;BME280_temperature;BME280_humidity;BME280_pressure;Samples;Min_cycle;Max_cycle;Signal;HPM_P1;HPM_P2
2023/04/27 00:00:27;;;;;;;;;;;21.30;99.90;;;;;;5076815;28;20016;-65
2023/04/27 00:02:53;;;;;;;;;;;21.40;99.90;;;;;;5080341;28;19908;-66
2023/04/27 00:05:20;;;;;;;;;;;21.60;99.90;;;;;;5075808;28;19919;-67
2023/04/27 00:07:47;;;;;;;;;;;21.60;99.90;;;;;;5079741;28;20369;-65
2023/04/27 00:10:13;;;;;;;;;;;21.60;99.90;;;;;;5077123;28;19975;-65
2023/04/27 00:12:41;;;;;;;;;;;21.70;99.90;;;;;;5077529;28;19931;-67
2023/04/27 00:15:08;;;;;;;;;;;21.70;99.90;;;;;;5057966;28;19916;-66
2023/04/27 00:17:35;;;;;;;;;;;21.80;99.90;;;;;;5077760;28;19912;-67
2023/04/27 00:20:03;;;;;;;;;;;21.80;99.90;;;;;;5079319;28;20467;-65
2023/04/27 00:22:30;;;;;;;;;;;21.90;99.90;;;;;;5077413;28;19912;-66
2023/04/27 00:24:57;;;;;;;;;;;22.00;99.90;;;;;;5079522;28;19912;-68
2023/04/27 00:27:23;;;;;;;;;;;22.00;99.90;;;;;;5074519;28;19912;-67
2023/04/27 00:29:50;;;;;;;;;;;22.10;99.90;;;;;;5079617;28;19915;-66
2023/04/27 00:32:17;;;;;;;;;;;22.20;99.90;;;;;;5076258;28;20365;-70
2023/04/27 00:34:43;;;;;;;;;;;22.20;99.90;;;;;;5079179;28;19912;-67
2023/04/27 00:37:10;;;;;;;;;;;22.30;99.90;;;;;;5077330;28;20372;-66
2023/04/27 00:39:37;;;;;;;;;;;22.40;99.90;;;;;;5077828;28;19916;-69
2023/04/27 00:42:03;;;;;;;;;;;22.40;99.90;;;;;;5079626;28;19923;-69
2023/04/27 00:44:30;;;;;;;;;;;22.50;99.90;;;;;;5074899;28;19919;-69
2023/04/27 00:46:57;;;;;;;;;;;22.50;99.90;;;;;;5078993;28;19920;-66
2023/04/27 00:49:25;;;;;;;;;;;22.70;99.90;;;;;;5075037;28;19991;-69
2023/04/27 00:51:55;;;;;;;;;;;22.80;99.90;;;;;;5068058;28;21925;-68
2023/04/27 00:54:22;;;;;;;;;;;22.80;99.90;;;;;;5076028;28;19912;-70
2023/04/27 00:56:50;;;;;;;;;;;22.80;99.90;;;;;;5078795;28;20020;-65
2023/04/27 00:59:17;;;;;;;;;;;23.00;99.90;;;;;;5076501;28;20544;-67
2023/04/27 01:01:44;;;;;;;;;;;23.10;99.90;;;;;;5078033;28;19916;-66
2023/04/27 01:04:11;;;;;;;;;;;22.90;99.90;;;;;;5078340;28;19912;-68
2023/04/27 01:06:38;;;;;;;;;;;23.00;99.90;;;;;;5075660;28;19994;-67
2023/04/27 01:09:05;;;;;;;;;;;23.10;99.90;;;;;;5077357;28;19994;-68
2023/04/27 01:11:32;;;;;;;;;;;23.00;99.90;;;;;;5075002;28;20533;-67
2023/04/27 01:14:02;;;;;;;;;;;23.00;99.90;;;;;;5078476;28;20365;-68
2023/04/27 01:16:29;;;;;;;;;;;22.90;99.90;;;;;;5074124;28;19908;-67
2023/04/27 01:18:55;;;;;;;;;;;23.00;99.90;;;;;;5075818;28;19914;-67
2023/04/27 01:21:22;;;;;;;;;;;22.90;99.90;;;;;;5071927;28;19919;-65
2023/04/27 01:23:49;;;;;;;;;;;23.00;99.90;;;;;;5073884;28;20381;-67
2023/04/27 01:26:15;;;;;;;;;;;23.10;99.90;;;;;;5073383;28;19916;-66
2023/04/27 01:28:42;;;;;;;;;;;23.40;99.90;;;;;;5071857;28;19970;-66
2023/04/27 01:31:12;;;;;;;;;;;23.50;99.70;;;;;;5074104;28;20359;-65
2023/04/27 01:33:39;;;;;;;;;;;23.70;99.40;;;;;;5069608;28;19912;-67
2023/04/27 01:36:06;;;;;;;;;;;23.90;99.30;;;;;;5072237;28;20008;-67
2023/04/27 01:38:33;;;;;;;;;;;24.10;98.80;;;;;;5072479;28;19922;-66
2023/04/27 01:41:02;;;;;;;;;;;24.20;97.50;;;;;;5072128;28;20234;-68
2023/04/27 01:43:30;;;;;;;;;;;24.30;97.20;;;;;;5071171;28;20270;-66
2023/04/27 01:46:04;;;;;;;;;;;24.40;97.00;;;;;;5070311;28;19928;-67
2023/04/27 01:48:31;;;;;;;;;;;24.40;96.60;;;;;;5071318;28;20264;-66
2023/04/27 01:50:57;;;;;;;;;;;24.50;97.10;;;;;;5073697;28;19908;-67
2023/04/27 01:53:24;;;;;;;;;;;24.60;96.10;;;;;;5071533;28;20284;-68
2023/04/27 01:55:50;;;;;;;;;;;24.70;96.00;;;;;;5073678;28;20291;-67
2023/04/27 01:58:17;;;;;;;;;;;25.10;96.10;;;;;;5070846;28;19989;-67
2023/04/27 02:00:44;;;;;;;;;;;25.40;95.80;;;;;;5072170;28;19982;-67
2023/04/27 02:03:10;;;;;;;;;;;25.60;94.90;;;;;;5072445;28;20011;-66
2023/04/27 02:05:37;;;;;;;;;;;25.70;94.80;;;;;;5082811;28;19926;-68
2023/04/27 02:08:04;;;;;;;;;;;25.70;94.40;;;;;;5082420;28;19959;-67
2023/04/27 02:10:30;;;;;;;;;;;25.50;93.60;;;;;;5073133;28;19918;-69
2023/04/27 02:12:57;;;;;;;;;;;25.50;94.30;;;;;;5061988;28;19916;-68
2023/04/27 02:15:23;;;;;;;;;;;25.70;93.50;;;;;;5077866;28;19915;-69
2023/04/27 02:17:50;;;;;;;;;;;25.80;93.50;;;;;;5079625;28;19919;-68
2023/04/27 02:20:17;;;;;;;;;;;25.80;92.50;;;;;;5078753;28;19961;-68
2023/04/27 02:22:43;;;;;;;;;;;25.80;92.60;;;;;;5078667;28;19991;-68
2023/04/27 02:25:13;;;;;;;;;;;26.00;93.00;;;;;;5079782;28;19912;-67
2023/04/27 02:27:40;;;;;;;;;;;26.10;92.70;;;;;;5077467;28;19930;-66
2023/04/27 02:30:08;;;;;;;;;;;25.70;92.00;;;;;;5062506;28;19919;-66
2023/04/27 02:32:35;;;;;;;;;;;25.90;92.10;;;;;;5077190;28;19915;-67
2023/04/27 02:35:02;;;;;;;;;;;25.90;92.40;;;;;;5080094;28;19908;-66
2023/04/27 02:37:29;;;;;;;;;;;25.90;91.80;;;;;;5076634;28;20112;-66
2023/04/27 02:39:56;;;;;;;;;;;26.30;91.90;;;;;;5079310;28;19978;-65
2023/04/27 02:42:23;;;;;;;;;;;27.60;91.50;;;;;;5078561;28;19912;-68
2023/04/27 02:44:49;;;;;;;;;;;29.20;88.20;;;;;;5077159;28;19916;-67
2023/04/27 02:47:16;;;;;;;;;;;29.20;85.70;;;;;;5078117;28;19918;-69
2023/04/27 02:49:43;;;;;;;;;;;29.40;86.20;;;;;;5077315;28;20012;-67
2023/04/27 02:52:09;;;;;;;;;;;30.10;84.70;;;;;;5080311;28;19920;-67
2023/04/27 02:54:36;;;;;;;;;;;31.00;80.90;;;;;;5075449;28;19915;-66
2023/04/27 02:57:03;;;;;;;;;;;30.00;82.60;;;;;;5079179;28;19991;-68
2023/04/27 02:59:30;;;;;;;;;;;29.80;83.50;;;;;;5077978;28;19922;-67
2023/04/27 03:01:56;;;;;;;;;;;30.80;82.00;;;;;;5078752;28;19938;-65
2023/04/27 03:04:23;;;;;;;;;;;32.50;81.30;;;;;;5078637;28;19920;-67
2023/04/27 03:06:50;;;;;;;;;;;33.80;79.60;;;;;;5076292;28;20353;-67
2023/04/27 03:09:16;;;;;;;;;;;34.20;77.30;;;;;;5079706;28;19946;-66
2023/04/27 03:11:43;;;;;;;;;;;34.50;76.80;;;;;;5075568;28;19908;-66
2023/04/27 03:14:11;;;;;;;;;;;35.60;74.40;;;;;;5080246;28;20062;-67
2023/04/27 03:16:38;;;;;;;;;;;35.90;74.90;;;;;;5075167;28;19920;-68
2023/04/27 03:19:05;;;;;;;;;;;36.40;71.50;;;;;;5078170;28;19995;-67
2023/04/27 03:21:31;;;;;;;;;;;35.00;74.20;;;;;;5077610;28;19944;-67
2023/04/27 03:23:58;;;;;;;;;;;35.00;73.60;;;;;;5076384;28;19908;-67
2023/04/27 03:26:25;;;;;;;;;;;35.60;72.50;;;;;;5077611;28;19916;-69
2023/04/27 03:28:52;;;;;;;;;;;35.70;71.20;;;;;;5076458;28;19970;-68
2023/04/27 03:31:18;;;;;;;;;;;36.10;71.30;;;;;;5078127;28;19919;-69
2023/04/27 03:33:45;;;;;;;;;;;36.80;70.10;;;;;;5075612;28;19916;-67
2023/04/27 03:36:12;;;;;;;;;;;36.80;68.50;;;;;;5076762;28;19915;-69
2023/04/27 03:38:38;;;;;;;;;;;35.30;71.30;;;;;;5076053;28;19920;-69
2023/04/27 03:41:05;;;;;;;;;;;35.20;71.70;;;;;;5077363;28;19919;-68
2023/04/27 03:43:31;;;;;;;;;;;35.50;70.60;;;;;;5077757;28;19908;-68
2023/04/27 03:45:58;;;;;;;;;;;35.50;70.60;;;;;;5075769;28;19912;-67
2023/04/27 03:48:25;;;;;;;;;;;35.70;70.60;;;;;;5077895;28;19912;-68
2023/04/27 03:50:51;;;;;;;;;;;35.50;70.70;;;;;;5077087;28;20010;-68
2023/04/27 03:53:18;;;;;;;;;;;34.30;72.90;;;;;;5077929;28;20288;-68
2023/04/27 03:55:45;;;;;;;;;;;34.10;73.60;;;;;;5075782;28;19916;-68
2023/04/27 03:58:12;;;;;;;;;;;34.50;73.00;;;;;;5076665;28;19908;-68
2023/04/27 04:00:39;;;;;;;;;;;34.40;72.10;;;;;;5077340;28;19933;-69
2023/04/27 04:03:06;;;;;;;;;;;34.20;73.10;;;;;;5076441;28;19920;-67
2023/04/27 04:05:33;;;;;;;;;;;34.80;72.30;;;;;;5076768;28;19916;-67
2023/04/27 04:07:59;;;;;;;;;;;35.30;71.50;;;;;;5075195;28;19912;-67
2023/04/27 04:10:26;;;;;;;;;;;35.60;71.40;;;;;;5078524;28;20451;-67
2023/04/27 04:12:53;;;;;;;;;;;35.90;70.70;;;;;;5076443;28;19914;-67
2023/04/27 04:15:19;;;;;;;;;;;36.00;69.80;;;;;;5076809;28;20367;-68
2023/04/27 04:17:48;;;;;;;;;;;36.80;68.80;;;;;;5075460;28;19912;-68
2023/04/27 04:20:14;;;;;;;;;;;36.70;68.40;;;;;;5077830;28;19912;-67
2023/04/27 04:22:42;;;;;;;;;;;36.70;68.60;;;;;;5076309;28;20003;-68
2023/04/27 04:25:08;;;;;;;;;;;35.10;71.00;;;;;;5059080;28;19912;-67
2023/04/27 04:27:36;;;;;;;;;;;35.70;70.50;;;;;;5057162;28;19959;-70
2023/04/27 04:30:05;;;;;;;;;;;35.80;68.70;;;;;;5075922;28;19914;-67
2023/04/27 04:32:32;;;;;;;;;;;36.10;69.80;;;;;;5075781;28;19908;-67
2023/04/27 04:35:00;;;;;;;;;;;36.80;68.80;;;;;;5075423;28;19961;-68
2023/04/27 04:37:27;;;;;;;;;;;37.10;67.70;;;;;;5075427;28;19912;-67
2023/04/27 04:39:53;;;;;;;;;;;36.60;67.70;;;;;;5074022;28;20076;-67
2023/04/27 04:42:20;;;;;;;;;;;36.00;69.30;;;;;;5076414;28;19916;-68
2023/04/27 04:44:47;;;;;;;;;;;35.60;70.00;;;;;;5075333;28;19908;-68
2023/04/27 04:47:13;;;;;;;;;;;36.30;68.70;;;;;;5076509;28;19913;-67
2023/04/27 04:49:40;;;;;;;;;;;35.90;69.40;;;;;;5075049;28;19909;-66
2023/04/27 04:52:07;;;;;;;;;;;35.90;69.40;;;;;;5075678;28;19915;-68
2023/04/27 04:54:33;;;;;;;;;;;36.00;68.40;;;;;;5074739;28;19923;-67
2023/04/27 04:57:02;;;;;;;;;;;35.70;69.50;;;;;;5074990;28;19998;-66
2023/04/27 04:59:32;;;;;;;;;;;35.90;69.70;;;;;;5038759;28;19912;-66
2023/04/27 05:01:59;;;;;;;;;;;35.70;69.30;;;;;;5067724;28;19963;-66
2023/04/27 05:04:26;;;;;;;;;;;36.00;68.50;;;;;;5075812;28;19915;-67
2023/04/27 05:06:52;;;;;;;;;;;36.70;67.60;;;;;;5076472;28;19920;-67
2023/04/27 05:09:19;;;;;;;;;;;36.20;68.60;;;;;;5075922;28;19909;-67
2023/04/27 05:11:46;;;;;;;;;;;36.00;68.70;;;;;;5075083;28;20361;-65
2023/04/27 05:14:12;;;;;;;;;;;36.20;69.10;;;;;;5074614;28;20721;-67
2023/04/27 05:16:39;;;;;;;;;;;36.80;67.60;;;;;;5056169;28;19916;-66
2023/04/27 05:19:07;;;;;;;;;;;36.80;67.40;;;;;;5074338;28;19999;-67
2023/04/27 05:21:34;;;;;;;;;;;36.80;68.50;;;;;;5073970;28;20384;-67
2023/04/27 05:24:00;;;;;;;;;;;36.60;68.90;;;;;;5073258;28;19908;-67
2023/04/27 05:26:27;;;;;;;;;;;36.40;69.10;;;;;;5055667;28;20249;-69
2023/04/27 05:28:53;;;;;;;;;;;36.70;69.10;;;;;;5075292;28;19908;-70
2023/04/27 05:31:20;;;;;;;;;;;36.60;68.10;;;;;;5072424;28;20284;-67
2023/04/27 05:33:47;;;;;;;;;;;36.90;66.90;;;;;;5073904;28;19919;-66
2023/04/27 05:36:14;;;;;;;;;;;37.00;68.40;;;;;;5075253;28;19971;-67
2023/04/27 05:38:41;;;;;;;;;;;36.30;68.40;;;;;;5072935;28;19990;-67
2023/04/27 05:41:08;;;;;;;;;;;36.60;68.80;;;;;;5072388;28;19923;-68
2023/04/27 05:43:37;;;;;;;;;;;36.80;67.90;;;;;;5073706;28;19999;-67
2023/04/27 05:46:04;;;;;;;;;;;36.80;67.10;;;;;;5073806;28;19927;-71
2023/04/27 05:48:31;;;;;;;;;;;37.20;65.70;;;;;;5072672;28;19969;-67
2023/04/27 05:51:01;;;;;;;;;;;36.40;68.70;;;;;;5074233;28;20015;-68
2023/04/27 05:53:29;;;;;;;;;;;36.30;67.90;;;;;;5073765;28;20365;-69
2023/04/27 05:55:58;;;;;;;;;;;36.00;68.00;;;;;;5071601;28;19959;-68
2023/04/27 05:58:24;;;;;;;;;;;35.20;67.90;;;;;;5072598;28;19912;-67
2023/04/27 06:00:51;;;;;;;;;;;35.00;69.10;;;;;;5070312;28;19923;-66
2023/04/27 06:03:18;;;;;;;;;;;35.30;68.80;;;;;;5073049;28;20426;-68
2023/04/27 06:05:44;;;;;;;;;;;35.50;67.90;;;;;;5073506;28;20023;-67
2023/04/27 06:08:12;;;;;;;;;;;35.20;68.40;;;;;;5073356;28;19916;-68
2023/04/27 06:10:38;;;;;;;;;;;34.90;69.20;;;;;;5072418;28;19919;-68
2023/04/27 06:13:05;;;;;;;;;;;34.70;69.60;;;;;;5073986;28;19915;-68
2023/04/27 06:15:31;;;;;;;;;;;34.10;70.80;;;;;;5073742;28;20409;-68
2023/04/27 06:17:58;;;;;;;;;;;33.50;71.80;;;;;;5073312;28;19959;-67
2023/04/27 06:20:25;;;;;;;;;;;33.30;71.60;;;;;;5073894;28;19913;-67
2023/04/27 06:22:51;;;;;;;;;;;32.90;72.90;;;;;;5072703;28;20784;-69
2023/04/27 06:25:18;;;;;;;;;;;32.30;73.90;;;;;;5073982;28;19924;-67
2023/04/27 06:27:46;;;;;;;;;;;31.80;74.50;;;;;;5071571;28;19976;-66
2023/04/27 06:30:12;;;;;;;;;;;30.70;76.80;;;;;;5074626;28;19951;-68
2023/04/27 06:32:39;;;;;;;;;;;30.30;78.10;;;;;;5072654;28;19922;-68
2023/04/27 06:35:06;;;;;;;;;;;29.70;79.40;;;;;;5074077;28;20254;-68
2023/04/27 06:37:32;;;;;;;;;;;29.30;80.20;;;;;;5073083;28;19912;-66
2023/04/27 06:39:59;;;;;;;;;;;28.70;81.80;;;;;;5054580;28;20273;-69
2023/04/27 06:42:26;;;;;;;;;;;28.30;83.00;;;;;;5073490;28;19920;-68
2023/04/27 06:44:55;;;;;;;;;;;27.80;84.40;;;;;;5073037;28;19912;-68
2023/04/27 06:47:22;;;;;;;;;;;27.10;86.40;;;;;;5071727;28;19917;-67
2023/04/27 06:49:49;;;;;;;;;;;26.30;88.50;;;;;;5072291;28;20672;-67
2023/04/27 06:52:16;;;;;;;;;;;25.70;90.40;;;;;;5077984;28;19908;-68
2023/04/27 06:54:43;;;;;;;;;;;25.10;91.50;;;;;;5075001;28;20293;-68
2023/04/27 06:57:09;;;;;;;;;;;24.70;92.40;;;;;;5077912;28;19919;-68
2023/04/27 06:59:36;;;;;;;;;;;24.30;93.40;;;;;;5076048;28;19957;-67
2023/04/27 07:02:03;;;;;;;;;;;24.00;94.60;;;;;;5076720;28;19919;-68
2023/04/27 07:04:29;;;;;;;;;;;23.80;95.10;;;;;;5078327;28;19912;-69
2023/04/27 07:06:56;;;;;;;;;;;23.50;95.90;;;;;;5076933;28;19973;-68
2023/04/27 07:09:22;;;;;;;;;;;23.40;96.40;;;;;;5078451;28;19912;-67
2023/04/27 07:11:49;;;;;;;;;;;23.30;97.10;;;;;;5074829;28;20677;-69
2023/04/27 07:14:16;;;;;;;;;;;23.10;97.70;;;;;;5077850;28;20399;-69
2023/04/27 07:16:43;;;;;;;;;;;22.90;98.20;;;;;;5076790;28;19908;-67
2023/04/27 07:19:10;;;;;;;;;;;22.70;98.80;;;;;;5056460;28;19920;-67
2023/04/27 07:21:37;;;;;;;;;;;22.60;99.70;;;;;;5075251;28;19912;-68
2023/04/27 07:24:03;;;;;;;;;;;22.50;99.90;;;;;;5076458;28;19931;-69
2023/04/27 07:26:30;;;;;;;;;;;22.50;99.90;;;;;;5077475;28;19916;-68
2023/04/27 07:28:57;;;;;;;;;;;22.40;99.90;;;;;;5076181;28;19957;-68
2023/04/27 07:31:24;;;;;;;;;;;22.20;99.90;;;;;;5076266;28;19985;-69
2023/04/27 07:33:51;;;;;;;;;;;22.20;99.90;;;;;;5075557;28;19941;-70
2023/04/27 07:36:18;;;;;;;;;;;22.10;99.90;;;;;;5077306;28;19923;-70
2023/04/27 07:38:45;;;;;;;;;;;22.00;99.90;;;;;;5076821;28;19920;-70
2023/04/27 07:41:13;;;;;;;;;;;22.00;99.90;;;;;;5076677;28;19954;-69
2023/04/27 07:43:41;;;;;;;;;;;22.00;99.90;;;;;;5085067;28;19998;-68
2023/04/27 07:46:08;;;;;;;;;;;21.90;99.90;;;;;;5075823;28;19924;-69
2023/04/27 07:48:35;;;;;;;;;;;21.80;99.90;;;;;;5077565;28;19911;-68
2023/04/27 07:51:02;;;;;;;;;;;21.80;99.90;;;;;;5076495;28;19916;-68
2023/04/27 07:53:28;;;;;;;;;;;21.80;99.90;;;;;;5078744;28;19940;-67
2023/04/27 07:55:55;;;;;;;;;;;21.70;99.90;;;;;;5076973;28;20509;-70
2023/04/27 07:58:21;;;;;;;;;;;21.60;99.90;;;;;;5075270;28;19912;-71
2023/04/27 08:00:48;;;;;;;;;;;21.60;99.90;;;;;;5076201;28;20272;-70
2023/04/27 08:03:15;;;;;;;;;;;21.60;99.90;;;;;;5074460;28;19912;-70
2023/04/27 08:05:41;;;;;;;;;;;21.50;99.90;;;;;;5076026;28;19916;-70
2023/04/27 08:08:08;;;;;;;;;;;21.50;99.90;;;;;;5075185;28;19919;-72
2023/04/27 08:10:36;;;;;;;;;;;21.40;99.90;;;;;;5077423;28;19998;-71
2023/04/27 08:13:03;;;;;;;;;;;21.30;99.90;;;;;;5076135;28;19930;-71
2023/04/27 08:15:30;;;;;;;;;;;21.30;99.90;;;;;;5075421;28;19955;-69
2023/04/27 08:17:57;;;;;;;;;;;21.30;99.90;;;;;;5075568;28;20420;-69
2023/04/27 08:20:24;;;;;;;;;;;21.30;99.90;;;;;;5094235;28;19915;-69
2023/04/27 08:22:51;;;;;;;;;;;21.30;99.90;;;;;;5095577;28;19908;-70
2023/04/27 08:25:17;;;;;;;;;;;21.30;99.90;;;;;;5093820;28;20545;-69
2023/04/27 08:27:44;;;;;;;;;;;21.30;99.90;;;;;;5077018;28;19916;-69
2023/04/27 08:30:11;;;;;;;;;;;21.20;99.90;;;;;;5076146;28;20515;-71
2023/04/27 08:32:38;;;;;;;;;;;21.20;99.90;;;;;;5076854;28;20429;-67
2023/04/27 08:35:05;;;;;;;;;;;21.10;99.90;;;;;;5077249;28;20391;-68
2023/04/27 08:37:31;;;;;;;;;;;21.10;99.90;;;;;;5075003;28;19954;-69
2023/04/27 08:39:58;;;;;;;;;;;21.20;99.90;;;;;;5076328;28;20349;-71
2023/04/27 08:42:25;;;;;;;;;;;21.10;99.90;;;;;;5075226;28;19915;-69
2023/04/27 08:44:51;;;;;;;;;;;21.10;99.90;;;;;;5075613;28;20006;-68
2023/04/27 08:47:18;;;;;;;;;;;21.00;99.90;;;;;;5074085;28;20011;-68
2023/04/27 08:49:45;;;;;;;;;;;21.00;99.90;;;;;;5076331;28;19920;-68
2023/04/27 08:52:15;;;;;;;;;;;20.90;99.90;;;;;;5076128;28;19912;-71
2023/04/27 08:54:42;;;;;;;;;;;20.90;99.90;;;;;;5077572;28;20344;-71
2023/04/27 08:57:10;;;;;;;;;;;20.90;99.90;;;;;;5076768;28;19909;-67
2023/04/27 08:59:37;;;;;;;;;;;20.90;99.90;;;;;;5074663;28;19920;-67
2023/04/27 09:02:04;;;;;;;;;;;20.90;99.90;;;;;;5075739;28;19918;-69
2023/04/27 09:04:41;;;;;;;;;;;20.90;99.90;;;;;;5075131;28;19912;-69
2023/04/27 09:07:14;;;;;;;;;;;20.90;99.90;;;;;;5075057;28;20388;-67
2023/04/27 09:09:41;;;;;;;;;;;20.90;99.90;;;;;;5075837;28;20288;-67
2023/04/27 09:12:14;;;;;;;;;;;20.80;99.90;;;;;;5075232;28;20597;-70
2023/04/27 09:14:41;;;;;;;;;;;20.90;99.90;;;;;;5075031;28;20040;-69
2023/04/27 09:17:08;;;;;;;;;;;20.80;99.90;;;;;;5075701;28;19908;-70
2023/04/27 09:19:35;;;;;;;;;;;20.80;99.90;;;;;;5073694;28;19958;-68
2023/04/27 09:22:04;;;;;;;;;;;20.80;99.90;;;;;;5075743;28;19912;-68
2023/04/27 09:24:31;;;;;;;;;;;20.80;99.90;;;;;;5074717;28;20395;-69
2023/04/27 09:26:58;;;;;;;;;;;20.70;99.90;;;;;;5075535;28;20400;-69
2023/04/27 09:29:37;;;;;;;;;;;20.70;99.90;;;;;;5073645;28;19912;-70
2023/04/27 09:32:17;;;;;;;;;;;20.60;99.90;;;;;;5076519;28;19912;-69
2023/04/27 09:34:44;;;;;;;;;;;20.60;99.90;;;;;;5074074;28;19912;-69
2023/04/27 09:37:11;;;;;;;;;;;20.60;99.90;;;;;;5073458;28;19939;-68
2023/04/27 09:39:38;;;;;;;;;;;20.60;99.90;;;;;;5073636;28;19912;-69
2023/04/27 09:42:05;;;;;;;;;;;20.60;99.90;;;;;;5076076;28;19958;-69
2023/04/27 09:44:32;;;;;;;;;;;20.60;99.90;;;;;;5055129;28;19912;-70
2023/04/27 09:46:59;;;;;;;;;;;20.50;99.90;;;;;;5073229;28;19920;-69
2023/04/27 09:49:27;;;;;;;;;;;20.50;99.90;;;;;;5075995;28;19912;-68
2023/04/27 09:51:55;;;;;;;;;;;20.60;99.90;;;;;;5074439;28;20350;-69
2023/04/27 09:54:23;;;;;;;;;;;20.50;99.90;;;;;;5076140;28;19956;-69
2023/04/27 09:56:50;;;;;;;;;;;20.50;99.90;;;;;;5074154;28;19912;-69
2023/04/27 09:59:36;;;;;;;;;;;20.40;99.90;;;;;;5075583;28;19962;-69
2023/04/27 10:02:04;;;;;;;;;;;20.40;99.90;;;;;;5074532;28;20345;-68
2023/04/27 10:04:49;;;;;;;;;;;20.40;99.90;;;;;;5075777;28;19916;-69
2023/04/27 10:07:16;;;;;;;;;;;20.40;99.90;;;;;;5061915;28;19923;-70
2023/04/27 10:09:45;;;;;;;;;;;20.40;99.90;;;;;;5074675;28;19962;-68
2023/04/27 10:12:17;;;;;;;;;;;20.30;99.90;;;;;;5075235;28;19991;-70
2023/04/27 10:14:51;;;;;;;;;;;20.40;99.90;;;;;;5081342;28;20470;-69
2023/04/27 10:17:18;;;;;;;;;;;20.40;99.90;;;;;;5074359;28;20331;-69
2023/04/27 10:19:58;;;;;;;;;;;20.30;99.90;;;;;;5073637;28;19959;-68
2023/04/27 10:22:37;;;;;;;;;;;20.30;99.90;;;;;;5075790;28;19920;-71
2023/04/27 10:25:12;;;;;;;;;;;20.30;99.90;;;;;;5075864;28;20353;-69
2023/04/27 10:27:40;;;;;;;;;;;20.30;99.90;;;;;;5079582;28;20392;-69
2023/04/27 10:30:10;;;;;;;;;;;20.30;99.90;;;;;;5060691;28;19912;-68
2023/04/27 10:32:37;;;;;;;;;;;20.30;99.90;;;;;;5072742;28;20010;-69
2023/04/27 10:35:08;;;;;;;;;;;20.30;99.90;;;;;;5060045;28;20014;-71
2023/04/27 10:37:40;;;;;;;;;;;20.20;99.90;;;;;;5058632;28;19908;-69
2023/04/27 10:40:13;;;;;;;;;;;20.20;99.90;;;;;;5077529;28;19920;-69
2023/04/27 10:42:40;;;;;;;;;;;20.20;99.90;;;;;;5060994;28;19926;-67
2023/04/27 10:45:07;;;;;;;;;;;20.20;99.90;;;;;;5077834;28;19920;-68
2023/04/27 10:47:39;;;;;;;;;;;20.20;99.90;;;;;;5078602;28;19955;-69
2023/04/27 10:50:07;;;;;;;;;;;20.10;99.90;;;;;;5077429;28;20284;-71
2023/04/27 10:52:34;;;;;;;;;;;20.20;99.90;;;;;;5078172;28;20717;-71
2023/04/27 10:55:14;;;;;;;;;;;20.10;99.90;;;;;;5060146;28;19912;-68
2023/04/27 10:57:47;;;;;;;;;;;20.20;99.90;;;;;;5079038;28;19918;-69
2023/04/27 11:00:16;;;;;;;;;;;20.10;99.90;;;;;;5078814;28;19999;-68
2023/04/27 11:02:43;;;;;;;;;;;20.10;99.90;;;;;;5060586;28;19914;-67
2023/04/27 11:05:31;;;;;;;;;;;20.10;99.90;;;;;;5076582;28;19948;-68
2023/04/27 11:08:08;;;;;;;;;;;20.10;99.90;;;;;;5075545;28;19927;-69
2023/04/27 11:10:35;;;;;;;;;;;20.00;99.90;;;;;;5070889;28;19912;-69
2023/04/27 11:13:09;;;;;;;;;;;20.00;99.90;;;;;;5076633;28;19908;-66
2023/04/27 11:15:44;;;;;;;;;;;20.00;99.90;;;;;;5077758;28;19930;-68
2023/04/27 11:18:11;;;;;;;;;;;19.90;99.90;;;;;;5076816;28;20103;-70
2023/04/27 11:20:38;;;;;;;;;;;19.90;99.90;;;;;;5077443;28;20494;-69
2023/04/27 11:23:04;;;;;;;;;;;19.90;99.90;;;;;;5076805;28;20030;-69
2023/04/27 11:25:31;;;;;;;;;;;19.90;99.90;;;;;;5077907;28;19927;-68
2023/04/27 11:27:58;;;;;;;;;;;19.90;99.90;;;;;;5058843;28;19908;-70
2023/04/27 11:30:25;;;;;;;;;;;19.90;99.90;;;;;;5078547;28;19908;-68
2023/04/27 11:32:52;;;;;;;;;;;19.90;99.90;;;;;;5078582;28;19919;-71
2023/04/27 11:35:19;;;;;;;;;;;19.90;99.90;;;;;;5078805;28;19983;-67
2023/04/27 11:37:55;;;;;;;;;;;19.90;99.90;;;;;;5076359;28;19915;-67
2023/04/27 11:40:22;;;;;;;;;;;19.90;99.90;;;;;;5078147;28;20361;-69
2023/04/27 11:42:57;;;;;;;;;;;19.90;99.90;;;;;;5077895;28;19916;-68
2023/04/27 11:45:29;;;;;;;;;;;19.90;99.90;;;;;;5077206;28;19916;-70
2023/04/27 11:47:59;;;;;;;;;;;19.90;99.90;;;;;;5077581;28;20445;-70
2023/04/27 11:50:25;;;;;;;;;;;19.80;99.90;;;;;;5077399;28;19908;-68
2023/04/27 11:52:52;;;;;;;;;;;19.80;99.90;;;;;;5077398;28;20428;-68
2023/04/27 11:55:23;;;;;;;;;;;19.80;99.90;;;;;;5076573;28;19984;-67
2023/04/27 11:57:55;;;;;;;;;;;19.80;99.90;;;;;;5077080;28;20674;-69
2023/04/27 12:00:23;;;;;;;;;;;19.70;99.90;;;;;;5076959;28;20000;-69
2023/04/27 12:02:49;;;;;;;;;;;19.70;99.90;;;;;;5076904;28;20520;-69
2023/04/27 12:05:17;;;;;;;;;;;19.70;99.90;;;;;;5076353;28;19915;-69
2023/04/27 12:07:43;;;;;;;;;;;19.60;99.90;;;;;;5077295;28;19916;-70
2023/04/27 12:10:10;;;;;;;;;;;19.60;99.90;;;;;;5076138;28;19912;-68
2023/04/27 12:12:37;;;;;;;;;;;19.70;99.90;;;;;;5076172;28;19912;-69
2023/04/27 12:15:05;;;;;;;;;;;19.60;99.90;;;;;;5075855;28;19912;-70
2023/04/27 12:17:31;;;;;;;;;;;19.60;99.90;;;;;;5077142;28;19908;-67
2023/04/27 12:19:58;;;;;;;;;;;19.50;99.90;;;;;;5088294;28;19916;-69
2023/04/27 12:22:25;;;;;;;;;;;19.50;99.90;;;;;;5089004;28;20349;-69
2023/04/27 12:24:52;;;;;;;;;;;19.50;99.90;;;;;;5075949;28;20363;-70
2023/04/27 12:27:19;;;;;;;;;;;19.50;99.90;;;;;;5075349;28;19935;-68
2023/04/27 12:29:45;;;;;;;;;;;19.50;99.90;;;;;;5075304;28;20284;-69
2023/04/27 12:32:12;;;;;;;;;;;19.40;99.90;;;;;;5075269;28;19954;-68
2023/04/27 12:34:38;;;;;;;;;;;19.40;99.90;;;;;;5075373;28;19916;-68
2023/04/27 12:37:05;;;;;;;;;;;19.40;99.90;;;;;;5073593;28;19908;-69
2023/04/27 12:39:32;;;;;;;;;;;19.40;99.90;;;;;;5076511;28;19912;-67
2023/04/27 12:41:59;;;;;;;;;;;19.40;99.90;;;;;;5076112;28;20048;-66
2023/04/27 12:44:26;;;;;;;;;;;19.40;99.90;;;;;;5057258;28;19918;-67
2023/04/27 12:46:52;;;;;;;;;;;19.30;99.90;;;;;;5075787;28;19942;-67
2023/04/27 12:49:19;;;;;;;;;;;19.30;99.90;;;;;;5074699;28;19908;-69
2023/04/27 12:51:46;;;;;;;;;;;19.30;99.90;;;;;;5075989;28;20460;-69
2023/04/27 12:54:13;;;;;;;;;;;19.30;99.90;;;;;;5075189;28;19908;-68
2023/04/27 12:56:40;;;;;;;;;;;19.20;99.90;;;;;;5075975;28;19912;-70
2023/04/27 12:59:07;;;;;;;;;;;19.20;99.90;;;;;;5075442;28;19909;-71
2023/04/27 13:01:34;;;;;;;;;;;19.10;99.90;;;;;;5076446;28;20388;-66
2023/04/27 13:04:02;;;;;;;;;;;19.20;99.90;;;;;;5078262;28;19991;-67
2023/04/27 13:06:30;;;;;;;;;;;19.10;99.90;;;;;;5075158;28;19920;-68
2023/04/27 13:08:57;;;;;;;;;;;19.10;99.90;;;;;;5062207;28;20372;-67
2023/04/27 13:11:25;;;;;;;;;;;19.10;99.90;;;;;;5079279;28;19919;-68
2023/04/27 13:13:51;;;;;;;;;;;19.00;99.90;;;;;;5075275;28;20379;-70
2023/04/27 13:16:20;;;;;;;;;;;19.10;99.90;;;;;;5074845;28;19926;-68
2023/04/27 13:18:48;;;;;;;;;;;18.90;99.90;;;;;;5075583;28;20364;-68
2023/04/27 13:21:15;;;;;;;;;;;18.90;99.90;;;;;;5074648;28;19908;-70
2023/04/27 13:23:42;;;;;;;;;;;18.80;99.90;;;;;;5076536;28;19912;-68
2023/04/27 13:26:08;;;;;;;;;;;18.80;99.90;;;;;;5076048;28;20303;-71
2023/04/27 13:28:35;;;;;;;;;;;18.80;99.90;;;;;;5075385;28;19907;-67
2023/04/27 13:31:02;;;;;;;;;;;18.70;99.90;;;;;;5074853;28;19915;-66
2023/04/27 13:33:29;;;;;;;;;;;18.70;99.90;;;;;;5075136;28;20746;-70
2023/04/27 13:35:56;;;;;;;;;;;18.60;99.90;;;;;;5075431;28;19908;-71
2023/04/27 13:38:22;;;;;;;;;;;18.50;99.90;;;;;;5074871;28;20284;-68
2023/04/27 13:40:49;;;;;;;;;;;18.50;99.90;;;;;;5075699;28;19926;-70
2023/04/27 13:43:16;;;;;;;;;;;18.40;99.90;;;;;;5076051;28;19919;-70
2023/04/27 13:45:44;;;;;;;;;;;18.40;99.90;;;;;;5075928;28;20368;-69
2023/04/27 13:48:10;;;;;;;;;;;18.30;99.90;;;;;;5076055;28;19920;-68
2023/04/27 13:50:37;;;;;;;;;;;18.40;99.90;;;;;;5074566;28;19958;-67
2023/04/27 13:53:04;;;;;;;;;;;18.30;99.90;;;;;;5074748;28;19919;-70
2023/04/27 13:55:30;;;;;;;;;;;18.20;99.90;;;;;;5074855;28;19931;-70
2023/04/27 13:57:57;;;;;;;;;;;18.20;99.90;;;;;;5075202;28;19908;-69
2023/04/27 14:00:25;;;;;;;;;;;18.20;99.90;;;;;;5074118;28;20367;-68
2023/04/27 14:02:51;;;;;;;;;;;18.10;99.90;;;;;;5075785;28;19908;-70
2023/04/27 14:05:18;;;;;;;;;;;18.10;99.90;;;;;;5075549;28;19908;-70
2023/04/27 14:07:44;;;;;;;;;;;18.10;99.90;;;;;;5075567;28;20002;-68
2023/04/27 14:10:12;;;;;;;;;;;18.00;99.90;;;;;;5074744;28;19912;-68
2023/04/27 14:12:40;;;;;;;;;;;18.00;99.90;;;;;;5074443;28;19909;-70
2023/04/27 14:15:06;;;;;;;;;;;17.90;99.90;;;;;;5074830;28;19918;-68
2023/04/27 14:17:33;;;;;;;;;;;17.90;99.90;;;;;;5075176;28;19955;-68